This is the latest recevied weather packets stored in our database for station/object N6ABM. If no packets are shown the sender has not sent any weather packets the latest 1 day(s).
| Time | Temp. | Humidity | Pressure | Rain* | Wind** | Luminosity | Snow |
|---|---|---|---|---|---|---|---|
| 1778107217 | 30.56° C | 18% | 1013.7 hPa | 0 mm | - | - | - |
| 1778106016 | 30° C | 19% | 1013.9 hPa | 0 mm | - | - | - |
| 1778105717 | 30° C | 19% | 1014 hPa | 0 mm | - | - | - |
| 1778104517 | 30° C | 18% | 1014.3 hPa | 0 mm | - | - | - |
| 1778103617 | 30° C | 19% | 1014.6 hPa | 0 mm | - | - | - |
| 1778103017 | 30° C | 18% | 1014.7 hPa | 0 mm | - | - | - |
| 1778102717 | 30° C | 19% | 1014.8 hPa | 0 mm | - | - | - |
| 1778101217 | 30° C | 17% | 1015.2 hPa | 0 mm | - | - | - |
| 1778100917 | 30° C | 17% | 1015.3 hPa | 0 mm | - | - | - |
| 1778097917 | 29.44° C | 19% | 1015.9 hPa | 0 mm | - | - | - |
| 1778096117 | 29.44° C | 19% | 1016.2 hPa | 0 mm | - | - | - |
| 1778093117 | 28.89° C | 20% | 1016.7 hPa | 0 mm | - | - | - |
| 1778090417 | 28.33° C | 20% | 1017.1 hPa | 0 mm | - | - | - |
| 1778090117 | 28.33° C | 21% | 1017.1 hPa | 0 mm | - | - | - |
| 1778089817 | 28.33° C | 22% | 1017.2 hPa | 0 mm | - | - | - |
| 1778088917 | 27.78° C | 23% | 1017.2 hPa | 0 mm | - | - | - |
| 1778088017 | 28.33° C | 23% | 1017.2 hPa | 0 mm | - | - | - |
| 1778087417 | 27.78° C | 22% | 1017.1 hPa | 0 mm | - | - | - |
| 1778086217 | 26.67° C | 22% | 1017.1 hPa | 0 mm | - | - | - |
| 1778084717 | 25° C | 25% | 1017 hPa | 0 mm | - | - | - |
| 1778084117 | 23.89° C | 25% | 1017 hPa | 0 mm | - | - | - |
| 1778083517 | 23.33° C | 26% | 1017 hPa | 0 mm | - | - | - |
| 1778081717 | 21.67° C | 30% | 1017.2 hPa | 0 mm | - | - | - |
| 1778081117 | 21.11° C | 31% | 1017.2 hPa | 0 mm | - | - | - |
| 1778080817 | 21.11° C | 32% | 1017.2 hPa | 0 mm | - | - | - |
* Rain latest hour (hover to see other rain measurements)
** Current wind speed in m/s (hover to see current wind gust speed)